Time;durP1;ratioP1;P1;durP2;ratioP2;P2;SDS_P1;SDS_P2;PMS_P1;PMS_P2;Temp;Humidity;BMP_temperature;BMP_pressure;BME280_temperature;BME280_humidity;BME280_pressure;Samples;Min_cycle;Max_cycle;Signal;HPM_P1;HPM_P2
2021/03/01 00:00:57;;;;;;;5.93;1.33;;;20.50;56.30;;;;;;5200027;28;20065;-77
2021/03/01 00:03:27;;;;;;;4.55;1.30;;;20.50;56.30;;;;;;5183951;28;20026;-77
2021/03/01 00:05:58;;;;;;;6.65;1.27;;;20.50;56.30;;;;;;5184491;28;20038;-77
2021/03/01 00:08:29;;;;;;;4.88;1.27;;;20.50;56.30;;;;;;5184372;28;20025;-77
2021/03/01 00:10:59;;;;;;;3.88;1.38;;;20.50;56.40;;;;;;5185849;28;20089;-79
2021/03/01 00:13:30;;;;;;;3.33;1.10;;;20.50;56.90;;;;;;5184161;28;20030;-77
2021/03/01 00:16:00;;;;;;;9.32;1.60;;;20.50;56.40;;;;;;5183961;28;20026;-77
2021/03/01 00:18:31;;;;;;;7.45;1.30;;;20.50;56.40;;;;;;5199572;28;20034;-78
2021/03/01 00:21:01;;;;;;;11.43;1.60;;;20.50;56.50;;;;;;5184594;28;20080;-77
2021/03/01 00:23:32;;;;;;;14.85;1.70;;;20.50;56.60;;;;;;5163750;28;20078;-78
2021/03/01 00:26:02;;;;;;;9.98;1.35;;;20.40;56.60;;;;;;5151330;28;20395;-77
2021/03/01 00:28:33;;;;;;;3.65;1.20;;;20.50;56.60;;;;;;5183749;28;20026;-78
2021/03/01 00:31:03;;;;;;;6.70;1.17;;;20.50;56.70;;;;;;5183313;28;20038;-78
2021/03/01 00:33:34;;;;;;;6.95;1.45;;;20.50;56.60;;;;;;5184454;28;20397;-78
2021/03/01 00:36:05;;;;;;;6.15;1.60;;;20.40;56.50;;;;;;5183952;28;20026;-78
2021/03/01 00:38:35;;;;;;;5.15;1.40;;;20.40;56.50;;;;;;5168277;28;20512;-79
2021/03/01 00:41:05;;;;;;;1.98;1.30;;;20.40;56.50;;;;;;5185417;28;20033;-78
2021/03/01 00:43:36;;;;;;;2.78;1.10;;;20.50;56.60;;;;;;5188858;28;20022;-78
2021/03/01 00:46:07;;;;;;;5.97;1.45;;;20.40;56.60;;;;;;5205532;28;20144;-78
2021/03/01 00:48:37;;;;;;;3.67;1.23;;;20.40;56.50;;;;;;5205610;28;20172;-78
2021/03/01 00:51:08;;;;;;;6.55;1.20;;;20.40;56.60;;;;;;5172538;28;20042;-78
2021/03/01 00:53:38;;;;;;;2.83;1.02;;;20.40;56.60;;;;;;5189974;28;20393;-77
2021/03/01 00:56:09;;;;;;;1.58;0.95;;;20.40;56.50;;;;;;5189743;28;20412;-79
2021/03/01 00:58:39;;;;;;;4.13;1.00;;;20.40;56.60;;;;;;5205360;28;20030;-78
2021/03/01 01:01:10;;;;;;;3.08;1.10;;;20.40;56.60;;;;;;5181193;28;20044;-78
2021/03/01 01:03:40;;;;;;;2.88;1.02;;;20.40;56.60;;;;;;5202917;28;20022;-78
2021/03/01 01:06:11;;;;;;;2.33;1.17;;;20.40;56.60;;;;;;5189250;28;20030;-78
2021/03/01 01:08:41;;;;;;;2.17;1.10;;;20.40;56.70;;;;;;5174465;28;20557;-77
2021/03/01 01:11:12;;;;;;;2.53;1.10;;;20.40;56.70;;;;;;5204529;28;20044;-75
2021/03/01 01:13:42;;;;;;;5.28;1.10;;;20.40;56.70;;;;;;5193202;28;20030;-77
2021/03/01 01:16:13;;;;;;;4.38;1.13;;;20.40;56.70;;;;;;5187550;28;20029;-78
2021/03/01 01:18:43;;;;;;;4.85;1.30;;;20.40;56.80;;;;;;5134955;28;20035;-78
2021/03/01 01:21:14;;;;;;;4.20;1.30;;;20.40;56.80;;;;;;5152492;28;20031;-78
2021/03/01 01:23:44;;;;;;;3.72;0.98;;;20.40;56.90;;;;;;5152059;28;20029;-78
2021/03/01 01:26:15;;;;;;;5.13;1.17;;;20.40;56.90;;;;;;5151451;28;20050;-77
2021/03/01 01:28:45;;;;;;;2.50;1.00;;;20.40;56.90;;;;;;5149857;28;20025;-76
2021/03/01 01:31:16;;;;;;;3.95;1.02;;;20.40;57.00;;;;;;5162513;28;20122;-76
2021/03/01 01:33:46;;;;;;;6.60;1.10;;;20.40;56.90;;;;;;5186677;28;20461;-77
2021/03/01 01:36:17;;;;;;;3.63;1.20;;;20.40;57.00;;;;;;5186098;28;20034;-77
2021/03/01 01:38:47;;;;;;;3.15;1.00;;;20.40;57.00;;;;;;5186202;28;20045;-78
2021/03/01 01:41:18;;;;;;;0.88;0.80;;;20.30;56.90;;;;;;5186327;28;20029;-76
2021/03/01 01:43:49;;;;;;;1.80;1.08;;;20.40;56.90;;;;;;5185913;28;20113;-77
2021/03/01 01:46:19;;;;;;;2.25;0.95;;;20.40;57.00;;;;;;5185296;28;20045;-76
2021/03/01 01:48:50;;;;;;;2.15;1.00;;;20.40;57.00;;;;;;5169902;28;20100;-77
2021/03/01 01:51:20;;;;;;;1.83;1.20;;;20.40;57.00;;;;;;5185722;28;20030;-77
2021/03/01 01:53:51;;;;;;;2.15;1.10;;;20.40;57.10;;;;;;5168832;28;20029;-76
2021/03/01 01:56:21;;;;;;;1.73;1.15;;;20.40;57.00;;;;;;5185627;28;20404;-76
2021/03/01 01:58:52;;;;;;;2.28;1.10;;;20.40;57.00;;;;;;5185815;28;20041;-76
2021/03/01 02:01:22;;;;;;;3.72;1.10;;;20.40;56.90;;;;;;5158443;28;20027;-77
2021/03/01 02:03:59;;;;;;;1.08;0.98;;;20.40;57.00;;;;;;5166833;28;20026;-77
2021/03/01 02:06:44;;;;;;;2.63;1.30;;;20.30;56.90;;;;;;5160693;28;20085;-76
2021/03/01 02:09:31;;;;;;;5.20;1.50;;;20.30;56.90;;;;;;5184882;28;20022;-77
2021/03/01 02:12:03;;;;;;;4.70;1.38;;;20.40;57.10;;;;;;5184575;28;20436;-75
2021/03/01 02:14:52;;;;;;;3.70;1.27;;;20.30;57.10;;;;;;5168851;28;20022;-76
2021/03/01 02:17:22;;;;;;;3.10;1.30;;;20.30;57.00;;;;;;5173035;28;20045;-75
2021/03/01 02:19:53;;;;;;;2.17;1.20;;;20.30;57.10;;;;;;5167980;28;20022;-76
2021/03/01 02:22:23;;;;;;;10.13;1.40;;;20.40;57.20;;;;;;5175523;28;20126;-77
2021/03/01 02:25:07;;;;;;;5.55;1.20;;;20.40;57.40;;;;;;5150339;28;20018;-77
2021/03/01 02:27:50;;;;;;;10.43;1.40;;;20.40;57.50;;;;;;5185262;28;20034;-77
2021/03/01 02:30:33;;;;;;;10.57;1.42;;;20.40;57.10;;;;;;5183966;28;20128;-76
2021/03/01 02:33:09;;;;;;;14.73;1.75;;;20.40;57.10;;;;;;5205387;28;20506;-76
2021/03/01 02:35:41;;;;;;;5.03;1.20;;;20.40;57.00;;;;;;5189438;28;20079;-78
2021/03/01 02:38:12;;;;;;;6.28;1.92;;;20.40;56.90;;;;;;5170105;28;20404;-75
2021/03/01 02:40:43;;;;;;;6.13;1.20;;;20.40;56.90;;;;;;5195302;28;20034;-77
2021/03/01 02:43:13;;;;;;;5.75;1.20;;;20.40;56.70;;;;;;5195195;28;20037;-76
2021/03/01 02:45:44;;;;;;;4.18;1.10;;;20.40;56.50;;;;;;5185305;28;20511;-76
2021/03/01 02:48:14;;;;;;;2.00;1.05;;;20.40;56.40;;;;;;5168588;28;20576;-77
2021/03/01 02:50:45;;;;;;;3.55;1.00;;;20.40;56.30;;;;;;5168272;28;20026;-77
2021/03/01 02:53:16;;;;;;;6.97;1.55;;;20.30;56.20;;;;;;5184630;28;20030;-76
2021/03/01 02:55:47;;;;;;;6.25;1.20;;;20.40;56.40;;;;;;5163864;28;20453;-77
2021/03/01 02:58:18;;;;;;;4.13;1.27;;;20.40;56.30;;;;;;5180378;28;20029;-77
2021/03/01 03:00:49;;;;;;;5.85;1.08;;;20.40;56.20;;;;;;5167720;28;20034;-77
2021/03/01 03:03:19;;;;;;;4.00;1.10;;;20.40;56.20;;;;;;5183325;28;20026;-76
2021/03/01 03:05:50;;;;;;;4.18;1.00;;;20.40;56.40;;;;;;5163572;28;20042;-77
2021/03/01 03:08:20;;;;;;;4.47;1.50;;;20.40;56.30;;;;;;5165604;28;20023;-77
2021/03/01 03:10:51;;;;;;;1.55;0.93;;;20.40;56.40;;;;;;5183824;28;20026;-77
2021/03/01 03:13:21;;;;;;;4.88;1.10;;;20.30;56.30;;;;;;5176704;28;20026;-76
2021/03/01 03:15:53;;;;;;;3.35;1.20;;;20.30;56.30;;;;;;5190545;28;20080;-77
2021/03/01 03:18:24;;;;;;;2.63;1.10;;;20.30;56.40;;;;;;5187176;28;20029;-77
2021/03/01 03:20:56;;;;;;;4.15;0.98;;;20.30;56.40;;;;;;5184719;28;20026;-77
2021/03/01 03:23:27;;;;;;;4.38;1.08;;;20.30;56.40;;;;;;5181164;28;20025;-77
2021/03/01 03:25:57;;;;;;;4.03;1.20;;;20.30;56.40;;;;;;5170962;28;20044;-77
2021/03/01 03:28:28;;;;;;;1.85;0.98;;;20.30;56.50;;;;;;5176286;28;20041;-77
2021/03/01 03:30:58;;;;;;;2.28;0.98;;;20.30;56.40;;;;;;5168712;28;20073;-78
2021/03/01 03:33:29;;;;;;;3.65;0.90;;;20.30;56.30;;;;;;5171708;28;20124;-78
2021/03/01 03:35:59;;;;;;;1.52;0.98;;;20.30;56.40;;;;;;5186205;28;20505;-76
2021/03/01 03:38:34;;;;;;;1.30;0.85;;;20.30;56.40;;;;;;5171744;28;20503;-78
2021/03/01 03:41:05;;;;;;;1.23;0.70;;;20.20;56.30;;;;;;5186587;28;20065;-77
2021/03/01 03:43:35;;;;;;;2.03;0.80;;;20.30;56.20;;;;;;5200855;28;20428;-77
2021/03/01 03:46:06;;;;;;;4.63;0.80;;;20.30;56.40;;;;;;5185470;28;20072;-77
2021/03/01 03:48:37;;;;;;;2.75;0.90;;;20.30;56.50;;;;;;5187523;28;20021;-76
2021/03/01 03:51:09;;;;;;;1.10;0.80;;;20.30;56.50;;;;;;5168606;28;20048;-78
2021/03/01 03:53:43;;;;;;;2.22;0.85;;;20.30;56.50;;;;;;5199180;28;20108;-76
2021/03/01 03:56:14;;;;;;;1.93;0.73;;;20.30;56.50;;;;;;5185413;28;20014;-77
2021/03/01 03:58:46;;;;;;;9.20;1.25;;;20.30;56.60;;;;;;5187782;28;20049;-77
2021/03/01 04:01:19;;;;;;;11.32;1.42;;;20.30;56.90;;;;;;5195374;28;20029;-77
2021/03/01 04:03:49;;;;;;;8.10;1.00;;;20.40;57.00;;;;;;5187490;28;20101;-76
2021/03/01 04:06:20;;;;;;;4.60;1.00;;;20.40;56.80;;;;;;5187506;28;20033;-77
2021/03/01 04:08:51;;;;;;;4.63;1.40;;;20.40;56.70;;;;;;5187043;28;20029;-76
2021/03/01 04:11:22;;;;;;;4.60;1.00;;;20.40;56.60;;;;;;5170655;28;20484;-76
2021/03/01 04:13:54;;;;;;;2.20;0.90;;;20.40;56.60;;;;;;5186748;28;20064;-76
2021/03/01 04:16:25;;;;;;;2.00;0.70;;;20.40;56.60;;;;;;5171851;28;20033;-79
2021/03/01 04:18:56;;;;;;;1.33;0.70;;;20.30;56.50;;;;;;5181273;23;20071;-75
2021/03/01 04:21:27;;;;;;;3.65;0.90;;;20.30;56.50;;;;;;5210812;28;20021;-75
2021/03/01 04:23:57;;;;;;;1.80;0.73;;;20.30;56.50;;;;;;5211279;28;20051;-75
2021/03/01 04:26:28;;;;;;;1.92;0.82;;;20.30;56.50;;;;;;5180339;28;20025;-75
2021/03/01 04:28:58;;;;;;;1.83;0.70;;;20.30;56.50;;;;;;5182641;28;20033;-75
2021/03/01 04:31:29;;;;;;;2.15;1.00;;;20.30;56.60;;;;;;5168330;28;20026;-75
2021/03/01 04:34:00;;;;;;;2.63;1.20;;;20.30;56.60;;;;;;5170539;28;20033;-75
2021/03/01 04:36:30;;;;;;;2.65;0.98;;;20.30;56.60;;;;;;5170012;28;20018;-75
2021/03/01 04:39:01;;;;;;;2.22;0.57;;;20.30;56.80;;;;;;5170360;28;20026;-76
2021/03/01 04:41:33;;;;;;;2.67;1.10;;;20.30;56.80;;;;;;5179055;28;20026;-75
2021/03/01 04:44:04;;;;;;;3.17;0.80;;;20.40;57.00;;;;;;5178086;28;20029;-75
2021/03/01 04:46:34;;;;;;;3.55;0.85;;;20.40;56.80;;;;;;5164714;28;20049;-75
2021/03/01 04:49:05;;;;;;;2.00;1.00;;;20.40;56.70;;;;;;5170227;28;20451;-75
2021/03/01 04:51:36;;;;;;;4.70;1.10;;;20.30;56.60;;;;;;5176000;28;20030;-75
2021/03/01 04:54:07;;;;;;;1.60;0.95;;;20.30;56.60;;;;;;5190668;28;20022;-75
2021/03/01 04:56:44;;;;;;;16.80;2.20;;;20.30;56.60;;;;;;5172964;28;20442;-75
2021/03/01 04:59:15;;;;;;;7.78;1.17;;;20.30;56.90;;;;;;5173899;28;20031;-75
2021/03/01 05:01:48;;;;;;;1.35;0.80;;;20.40;56.90;;;;;;5163594;28;20033;-75
2021/03/01 05:04:18;;;;;;;2.33;0.70;;;20.40;56.80;;;;;;5192273;28;20487;-76
2021/03/01 05:06:49;;;;;;;3.53;1.00;;;20.40;56.80;;;;;;5190515;28;20090;-76
2021/03/01 05:09:19;;;;;;;3.13;0.98;;;20.40;56.70;;;;;;5191558;28;20104;-75
2021/03/01 05:11:50;;;;;;;1.25;0.82;;;20.40;56.70;;;;;;5192430;28;20029;-75
2021/03/01 05:14:20;;;;;;;1.30;0.93;;;20.40;56.70;;;;;;5211074;28;20483;-76
2021/03/01 05:16:51;;;;;;;11.02;1.67;;;20.40;56.60;;;;;;5207958;28;20033;-76
2021/03/01 05:19:21;;;;;;;5.15;1.08;;;20.40;56.80;;;;;;5174047;28;20033;-75
2021/03/01 05:21:52;;;;;;;4.25;1.05;;;20.40;56.80;;;;;;5191180;28;20036;-75
2021/03/01 05:24:22;;;;;;;4.35;0.73;;;20.30;56.80;;;;;;5212365;28;20029;-76
2021/03/01 05:26:53;;;;;;;3.65;0.80;;;20.30;57.00;;;;;;5212167;28;20067;-75
2021/03/01 05:29:23;;;;;;;9.57;1.20;;;20.40;57.10;;;;;;5206048;28;20048;-75
2021/03/01 05:31:54;;;;;;;14.15;1.52;;;20.40;57.40;;;;;;5171600;28;20037;-75
2021/03/01 05:34:24;;;;;;;11.15;1.73;;;20.40;57.30;;;;;;5210725;28;20025;-76
2021/03/01 05:36:55;;;;;;;21.80;1.95;;;20.50;57.40;;;;;;5196224;28;20435;-76
2021/03/01 05:39:25;;;;;;;14.75;1.40;;;20.50;57.40;;;;;;5185044;28;20029;-76
2021/03/01 05:41:56;;;;;;;11.73;1.48;;;20.50;57.40;;;;;;5196887;28;20033;-76
2021/03/01 05:44:26;;;;;;;14.18;1.30;;;20.50;57.60;;;;;;5197953;28;20040;-76
2021/03/01 05:46:57;;;;;;;7.97;1.08;;;20.50;57.30;;;;;;5156564;28;20496;-75
2021/03/01 05:49:27;;;;;;;13.75;1.80;;;20.50;57.30;;;;;;5172958;28;20113;-76
2021/03/01 05:51:58;;;;;;;8.23;1.10;;;20.50;57.80;;;;;;5173566;28;20403;-76
2021/03/01 05:54:29;;;;;;;6.10;1.30;;;20.40;57.20;;;;;;5156792;28;20100;-76
2021/03/01 05:57:00;;;;;;;11.52;1.15;;;20.40;57.30;;;;;;5171784;28;20120;-76
2021/03/01 05:59:30;;;;;;;8.95;1.63;;;20.30;57.20;;;;;;5172553;28;20547;-76
2021/03/01 06:02:01;;;;;;;7.93;0.90;;;20.30;57.30;;;;;;5179870;28;20060;-75
2021/03/01 06:04:31;;;;;;;7.82;1.13;;;20.30;57.30;;;;;;5205947;28;20026;-76
2021/03/01 06:07:02;;;;;;;9.38;1.35;;;20.30;57.20;;;;;;5218298;28;20025;-75
2021/03/01 06:09:32;;;;;;;4.82;0.70;;;20.30;57.30;;;;;;5208531;28;20033;-76
2021/03/01 06:12:03;;;;;;;7.28;1.50;;;20.30;57.30;;;;;;5205674;28;20565;-76
2021/03/01 06:14:34;;;;;;;3.88;0.85;;;20.30;57.30;;;;;;5192532;28;20105;-75
2021/03/01 06:17:18;;;;;;;5.93;0.90;;;20.30;57.30;;;;;;5222189;28;20029;-75
2021/03/01 06:19:51;;;;;;;6.32;1.23;;;20.20;57.10;;;;;;5209209;28;20029;-76
2021/03/01 06:22:34;;;;;;;3.78;0.90;;;20.20;57.20;;;;;;5218643;28;20112;-76
2021/03/01 06:25:09;;;;;;;4.80;0.75;;;20.20;57.30;;;;;;5211390;28;20029;-76
2021/03/01 06:27:45;;;;;;;5.03;0.95;;;20.20;57.30;;;;;;5226193;28;20163;-76
2021/03/01 06:30:16;;;;;;;;;;;20.20;57.10;;;;;;5225865;28;20021;-76
2021/03/01 06:33:02;;;;;;;2.65;0.70;;;20.20;57.00;;;;;;5226701;28;19931;-76
2021/03/01 06:35:54;;;;;;;1.50;0.70;;;20.20;57.20;;;;;;5210757;28;20056;-75
2021/03/01 06:38:26;;;;;;;2.58;0.93;;;20.10;57.10;;;;;;5208351;28;20491;-75
2021/03/01 06:41:16;;;;;;;2.90;0.80;;;20.20;57.10;;;;;;5205453;28;20036;-76
2021/03/01 06:43:58;;;;;;;4.60;0.80;;;20.20;57.00;;;;;;5209100;28;20051;-76
2021/03/01 06:46:29;;;;;;;3.15;1.10;;;20.20;57.20;;;;;;5223875;28;20044;-76
2021/03/01 06:49:13;;;;;;;8.82;0.70;;;20.20;57.20;;;;;;5208925;28;20056;-76
2021/03/01 06:51:44;;;;;;;3.35;0.60;;;20.20;57.30;;;;;;5208718;28;20082;-76
2021/03/01 06:54:21;;;;;;;3.38;0.50;;;20.20;57.30;;;;;;5198427;28;20028;-76
2021/03/01 06:56:52;;;;;;;13.27;1.38;;;20.20;57.40;;;;;;5225348;28;20618;-75
2021/03/01 06:59:23;;;;;;;9.90;1.15;;;20.20;57.30;;;;;;5225177;28;20032;-76
2021/03/01 07:01:58;;;;;;;3.88;0.65;;;20.20;57.20;;;;;;5224732;28;20036;-76
2021/03/01 07:04:30;;;;;;;4.93;0.67;;;20.20;57.20;;;;;;5224821;28;20035;-75
2021/03/01 07:07:02;;;;;;;4.00;0.63;;;20.20;57.10;;;;;;5211720;28;20559;-75
2021/03/01 07:09:32;;;;;;;4.03;0.82;;;20.20;57.10;;;;;;5223695;28;20032;-76
2021/03/01 07:12:03;;;;;;;5.57;0.73;;;20.20;57.00;;;;;;5211814;28;20097;-76
2021/03/01 07:14:34;;;;;;;3.17;0.80;;;20.20;57.10;;;;;;5208628;28;20491;-76
2021/03/01 07:17:04;;;;;;;2.50;0.32;;;20.20;57.20;;;;;;5214065;28;20037;-76
2021/03/01 07:19:35;;;;;;;4.80;0.90;;;20.30;57.20;;;;;;5205788;28;20029;-76
2021/03/01 07:22:07;;;;;;;1.58;0.70;;;20.20;57.50;;;;;;5207558;28;20107;-76
2021/03/01 07:24:37;;;;;;;1.88;0.70;;;20.30;57.00;;;;;;5192665;28;20025;-77
2021/03/01 07:27:08;;;;;;;1.95;0.60;;;20.40;56.80;;;;;;5218566;28;20029;-76
2021/03/01 07:29:39;;;;;;;2.80;0.85;;;20.30;56.60;;;;;;5222978;28;20199;-76
2021/03/01 07:32:13;;;;;;;2.55;0.80;;;20.30;56.40;;;;;;5222982;28;20036;-75
2021/03/01 07:34:43;;;;;;;2.00;0.80;;;20.30;56.00;;;;;;5202217;28;20032;-75
2021/03/01 07:37:13;;;;;;;6.60;0.90;;;20.30;55.90;;;;;;5191289;28;20017;-75
2021/03/01 07:39:44;;;;;;;1.90;0.75;;;20.30;55.90;;;;;;5196982;28;20037;-75
2021/03/01 07:42:15;;;;;;;4.78;0.70;;;20.30;55.80;;;;;;5222124;28;20545;-76
2021/03/01 07:44:49;;;;;;;6.00;0.80;;;20.30;55.50;;;;;;5219823;28;20484;-76
2021/03/01 07:47:20;;;;;;;3.30;1.00;;;20.30;55.30;;;;;;5205409;28;20045;-76
2021/03/01 07:49:51;;;;;;;2.35;0.70;;;20.20;55.20;;;;;;5206827;28;20028;-76
2021/03/01 07:52:24;;;;;;;5.57;1.40;;;20.20;55.10;;;;;;5211626;28;20112;-76
2021/03/01 07:54:56;;;;;;;1.40;0.55;;;20.20;55.00;;;;;;5214539;28;20024;-76
2021/03/01 07:57:27;;;;;;;1.67;0.80;;;20.20;55.00;;;;;;5220899;28;20025;-76
2021/03/01 07:59:59;;;;;;;4.25;1.08;;;20.20;54.90;;;;;;5193101;28;20061;-75
2021/03/01 08:02:30;;;;;;;1.35;0.80;;;20.20;54.80;;;;;;5217806;28;20064;-76
2021/03/01 08:05:22;;;;;;;2.00;0.82;;;20.20;54.50;;;;;;5202628;28;20087;-75
2021/03/01 08:07:53;;;;;;;2.47;1.08;;;20.20;54.10;;;;;;5208868;28;20027;-75
2021/03/01 08:10:27;;;;;;;7.70;1.42;;;20.30;54.10;;;;;;5184814;28;20021;-75
2021/03/01 08:13:04;;;;;;;4.93;1.25;;;20.30;54.10;;;;;;5221303;28;20053;-75
2021/03/01 08:15:39;;;;;;;3.20;1.05;;;20.40;54.00;;;;;;5217645;28;20036;-75
2021/03/01 08:18:11;;;;;;;8.48;1.20;;;20.40;54.10;;;;;;5199982;28;20148;-76
2021/03/01 08:20:54;;;;;;;8.82;1.20;;;20.40;54.60;;;;;;5215375;28;20087;-76
2021/03/01 08:23:31;;;;;;;2.60;0.80;;;20.40;54.60;;;;;;5204166;28;20021;-76
2021/03/01 08:26:02;;;;;;;6.22;1.10;;;20.40;54.70;;;;;;5202807;28;20029;-76
2021/03/01 08:28:35;;;;;;;4.57;0.98;;;20.50;54.60;;;;;;5204390;28;20094;-76
2021/03/01 08:31:06;;;;;;;4.82;1.00;;;20.40;54.50;;;;;;5215311;28;20038;-76
2021/03/01 08:33:37;;;;;;;3.97;1.33;;;20.40;54.50;;;;;;5215557;28;20171;-76
2021/03/01 08:36:10;;;;;;;4.18;1.05;;;20.40;54.40;;;;;;5220421;28;20475;-76
2021/03/01 08:38:47;;;;;;;2.83;0.98;;;20.40;54.40;;;;;;5215693;28;20056;-76
2021/03/01 08:41:42;;;;;;;2.33;0.80;;;20.40;54.40;;;;;;5220703;28;20032;-76
2021/03/01 08:44:20;;;;;;;4.72;0.85;;;20.30;54.30;;;;;;5192743;28;20530;-76
2021/03/01 08:46:51;;;;;;;5.95;1.10;;;20.30;54.30;;;;;;5213404;28;20430;-76
2021/03/01 08:49:23;;;;;;;1.80;0.90;;;20.30;54.30;;;;;;5187577;28;20096;-76
2021/03/01 08:51:54;;;;;;;3.35;0.93;;;20.30;54.30;;;;;;5204071;28;20025;-75
2021/03/01 08:54:26;;;;;;;4.00;0.90;;;20.30;54.20;;;;;;5219459;28;20027;-76
2021/03/01 08:57:04;;;;;;;1.92;0.90;;;20.30;54.20;;;;;;5202918;28;20017;-75
2021/03/01 08:59:34;;;;;;;3.80;1.00;;;20.30;54.10;;;;;;5206479;28;20029;-75
2021/03/01 09:02:05;;;;;;;2.10;1.00;;;20.30;54.00;;;;;;5215449;28;20036;-76
2021/03/01 09:04:35;;;;;;;2.67;0.82;;;20.30;54.00;;;;;;5210765;28;20032;-76
2021/03/01 09:07:08;;;;;;;6.75;1.15;;;20.30;53.90;;;;;;5223728;28;20442;-75
2021/03/01 09:09:46;;;;;;;5.22;1.00;;;20.30;53.90;;;;;;5192966;28;20530;-76
2021/03/01 09:12:17;;;;;;;2.28;0.70;;;20.30;53.90;;;;;;5225212;28;20108;-75
2021/03/01 09:14:48;;;;;;;1.42;1.00;;;20.30;53.90;;;;;;5227485;28;20025;-75
2021/03/01 09:17:18;;;;;;;2.05;0.80;;;20.30;53.80;;;;;;5198729;28;20128;-76
2021/03/01 09:19:49;;;;;;;2.25;0.80;;;20.30;53.80;;;;;;5219045;28;20044;-76
2021/03/01 09:22:20;;;;;;;2.55;0.90;;;20.30;53.70;;;;;;5186445;28;20518;-76
2021/03/01 09:24:50;;;;;;;2.45;0.95;;;20.30;53.60;;;;;;5209058;28;20096;-76
2021/03/01 09:27:33;;;;;;;2.80;0.80;;;20.30;53.60;;;;;;5226565;28;20040;-75
2021/03/01 09:30:04;;;;;;;1.40;0.80;;;20.30;53.70;;;;;;5220757;28;20026;-76
2021/03/01 09:32:34;;;;;;;1.35;0.90;;;20.30;53.80;;;;;;5190306;28;20640;-75
2021/03/01 09:35:19;;;;;;;1.95;0.80;;;20.30;53.60;;;;;;5181398;28;20484;-76
2021/03/01 09:37:50;;;;;;;1.05;0.80;;;20.30;53.60;;;;;;5226563;28;20456;-75
2021/03/01 09:40:22;;;;;;;1.88;0.80;;;20.30;53.60;;;;;;5226219;28;20112;-76
2021/03/01 09:42:54;;;;;;;4.03;0.80;;;20.30;53.60;;;;;;5209228;28;20466;-76
2021/03/01 09:45:25;;;;;;;2.03;0.80;;;20.30;53.50;;;;;;5222179;28;20103;-76
2021/03/01 09:47:56;;;;;;;0.70;0.70;;;20.30;53.60;;;;;;5218066;28;20030;-76
2021/03/01 09:50:27;;;;;;;1.10;0.70;;;20.30;53.40;;;;;;5226158;28;20021;-76
2021/03/01 09:52:57;;;;;;;1.25;0.75;;;20.30;53.40;;;;;;5206342;28;20036;-77
2021/03/01 09:55:28;;;;;;;1.45;0.60;;;20.30;53.30;;;;;;5220738;28;20056;-76
2021/03/01 09:57:59;;;;;;;3.10;1.00;;;20.30;53.40;;;;;;5198375;28;20029;-76
2021/03/01 10:00:31;;;;;;;2.28;0.82;;;20.30;53.40;;;;;;5189177;28;20550;-76
2021/03/01 10:03:02;;;;;;;2.65;0.77;;;20.30;53.40;;;;;;5205037;28;20021;-79
2021/03/01 10:05:33;;;;;;;4.20;0.70;;;20.30;53.40;;;;;;5195506;28;20022;-75
2021/03/01 10:08:05;;;;;;;3.30;0.80;;;20.30;53.40;;;;;;5189990;28;20091;-76
2021/03/01 10:10:37;;;;;;;2.22;0.82;;;20.20;53.40;;;;;;5217499;28;20028;-76
2021/03/01 10:13:21;;;;;;;1.90;0.77;;;20.20;53.40;;;;;;5173672;28;20484;-76
2021/03/01 10:15:54;;;;;;;4.32;0.98;;;20.20;54.00;;;;;;5173808;28;20039;-76
2021/03/01 10:18:29;;;;;;;2.20;0.80;;;20.20;53.40;;;;;;5219023;23;20057;-74
2021/03/01 10:21:04;;;;;;;2.65;0.88;;;20.20;53.30;;;;;;5201431;28;20037;-75
2021/03/01 10:23:42;;;;;;;1.55;0.90;;;20.30;53.20;;;;;;5178543;28;20123;-76
2021/03/01 10:26:19;;;;;;;1.00;0.80;;;20.20;53.20;;;;;;5207922;28;20028;-75
2021/03/01 10:28:53;;;;;;;0.90;0.68;;;20.20;53.30;;;;;;5173072;28;20052;-77
2021/03/01 10:31:25;;;;;;;1.20;0.75;;;20.20;53.20;;;;;;5214310;28;20032;-76
2021/03/01 10:33:57;;;;;;;1.88;0.80;;;20.20;53.20;;;;;;5175174;28;20029;-76
2021/03/01 10:36:48;;;;;;;1.23;0.88;;;20.20;53.20;;;;;;5184286;28;20399;-76
2021/03/01 10:39:20;;;;;;;2.20;0.73;;;20.20;53.20;;;;;;5182263;28;20123;-75
2021/03/01 10:41:52;;;;;;;1.77;0.80;;;20.20;53.20;;;;;;5220876;28;20107;-76
2021/03/01 10:44:33;;;;;;;1.38;0.80;;;20.20;53.20;;;;;;5201977;28;20431;-77
2021/03/01 10:47:16;;;;;;;1.08;0.80;;;20.20;53.20;;;;;;5197386;28;20065;-75
2021/03/01 10:49:54;;;;;;;1.92;0.85;;;20.20;53.20;;;;;;5200593;28;20021;-76
2021/03/01 10:52:25;;;;;;;1.63;0.60;;;20.20;53.10;;;;;;5196830;28;20114;-75
2021/03/01 10:54:57;;;;;;;1.92;0.82;;;20.30;53.20;;;;;;5179560;28;20030;-76
2021/03/01 10:57:27;;;;;;;1.88;0.90;;;20.20;53.20;;;;;;5177971;28;20468;-76
2021/03/01 10:59:59;;;;;;;1.17;0.60;;;20.20;53.20;;;;;;5215340;28;20065;-75
2021/03/01 11:02:30;;;;;;;1.35;0.82;;;20.20;53.20;;;;;;5205776;28;20033;-77
2021/03/01 11:05:00;;;;;;;1.35;0.80;;;20.20;53.40;;;;;;5184209;28;20032;-76
2021/03/01 11:07:31;;;;;;;3.40;0.70;;;20.30;53.50;;;;;;5200516;28;20035;-77
2021/03/01 11:10:02;;;;;;;3.45;0.80;;;20.30;53.40;;;;;;5217226;28;20025;-76
2021/03/01 11:12:32;;;;;;;2.88;0.80;;;20.30;53.50;;;;;;5194239;28;20506;-76
2021/03/01 11:15:03;;;;;;;0.95;0.50;;;20.30;53.60;;;;;;5181100;28;20032;-74
2021/03/01 11:17:34;;;;;;;2.55;0.70;;;20.30;53.60;;;;;;5171628;28;20416;-76
2021/03/01 11:20:05;;;;;;;2.80;0.73;;;20.30;53.60;;;;;;5165018;28;20025;-76
2021/03/01 11:22:36;;;;;;;2.95;0.80;;;20.30;53.70;;;;;;5173195;28;20028;-77
2021/03/01 11:25:07;;;;;;;5.75;0.70;;;20.30;53.40;;;;;;5197687;28;20107;-76
2021/03/01 11:27:37;;;;;;;5.78;0.90;;;20.30;53.50;;;;;;5170837;28;20487;-74
2021/03/01 11:30:08;;;;;;;5.63;1.10;;;20.30;54.20;;;;;;5187187;28;20029;-77
2021/03/01 11:32:39;;;;;;;7.05;1.25;;;20.30;53.50;;;;;;5186158;28;20408;-75
2021/03/01 11:35:10;;;;;;;4.88;0.98;;;20.30;53.60;;;;;;5199859;28;20029;-77
2021/03/01 11:37:40;;;;;;;4.60;1.20;;;20.20;53.40;;;;;;5174346;28;20620;-73
2021/03/01 11:40:12;;;;;;;7.93;1.13;;;20.30;53.20;;;;;;5225211;28;20040;-76
2021/03/01 11:42:43;;;;;;;6.97;1.73;;;20.30;53.10;;;;;;5187311;28;20041;-77
2021/03/01 11:45:14;;;;;;;9.10;1.50;;;20.30;53.10;;;;;;5194205;28;20021;-76
2021/03/01 11:47:44;;;;;;;5.03;1.50;;;20.30;53.20;;;;;;5200788;28;20034;-75
2021/03/01 11:50:18;;;;;;;6.60;1.27;;;20.30;53.20;;;;;;5191148;28;20148;-76
2021/03/01 11:52:52;;;;;;;6.53;1.63;;;20.30;53.20;;;;;;5190588;28;20029;-76
2021/03/01 11:55:23;;;;;;;5.53;1.20;;;20.30;53.10;;;;;;5178779;28;20029;-76
2021/03/01 11:57:53;;;;;;;7.13;1.33;;;20.30;53.00;;;;;;5219970;28;20031;-76
2021/03/01 12:00:24;;;;;;;4.25;1.33;;;20.30;53.00;;;;;;5166771;28;20049;-76
2021/03/01 12:02:54;;;;;;;2.35;1.20;;;20.30;53.00;;;;;;5178399;28;20032;-78
2021/03/01 12:05:25;;;;;;;1.80;1.10;;;20.20;53.00;;;;;;5172720;28;20049;-77
2021/03/01 12:07:55;;;;;;;5.32;1.10;;;20.30;53.00;;;;;;5177373;28;20499;-75
2021/03/01 12:10:26;;;;;;;4.97;1.42;;;20.30;53.00;;;;;;5205319;28;20090;-76
2021/03/01 12:12:56;;;;;;;9.73;1.05;;;20.30;53.00;;;;;;5172355;28;20022;-79
2021/03/01 12:15:28;;;;;;;4.60;1.13;;;20.30;53.00;;;;;;5172896;28;20026;-83
2021/03/01 12:17:59;;;;;;;1.92;0.90;;;20.30;52.90;;;;;;5184687;28;20021;-82
2021/03/01 12:20:30;;;;;;;3.70;1.05;;;20.30;52.90;;;;;;5187644;28;20541;-86
2021/03/01 12:23:00;;;;;;;2.00;0.90;;;20.30;52.90;;;;;;5161593;28;20022;-80
2021/03/01 12:25:31;;;;;;;1.92;0.90;;;20.30;52.90;;;;;;5207573;28;20030;-79
2021/03/01 12:28:02;;;;;;;1.85;1.10;;;20.30;52.80;;;;;;5188608;28;20106;-77
2021/03/01 12:30:32;;;;;;;3.15;1.13;;;20.30;52.80;;;;;;5198081;28;20034;-77
2021/03/01 12:33:03;;;;;;;3.75;1.10;;;20.30;52.70;;;;;;5190258;28;20071;-76
2021/03/01 12:35:34;;;;;;;2.15;0.90;;;20.30;52.60;;;;;;5185616;28;20033;-76
2021/03/01 12:38:05;;;;;;;2.25;1.25;;;20.30;52.60;;;;;;5202972;28;20025;-77
2021/03/01 12:40:35;;;;;;;2.47;1.10;;;20.30;52.70;;;;;;5201861;28;20412;-79
2021/03/01 12:43:06;;;;;;;6.45;1.23;;;20.30;52.70;;;;;;5187110;28;20018;-79
2021/03/01 12:45:37;;;;;;;2.95;1.00;;;20.30;52.70;;;;;;5187308;28;20049;-77
2021/03/01 12:48:07;;;;;;;2.08;1.08;;;20.30;52.80;;;;;;5196191;28;20021;-79
2021/03/01 12:50:38;;;;;;;1.50;0.88;;;20.30;52.80;;;;;;5167567;28;20036;-78
2021/03/01 12:53:08;;;;;;;2.22;1.30;;;20.30;52.90;;;;;;5191367;28;20030;-79
2021/03/01 12:55:39;;;;;;;3.13;1.20;;;20.30;53.00;;;;;;5189622;28;20059;-78
2021/03/01 12:58:09;;;;;;;18.67;3.67;;;20.40;53.10;;;;;;5207568;28;20040;-81
2021/03/01 13:00:40;;;;;;;75.65;12.80;;;20.40;56.80;;;;;;5190405;28;20108;-79
2021/03/01 13:03:10;;;;;;;94.18;14.05;;;20.40;57.90;;;;;;5177771;28;20025;-78
2021/03/01 13:05:41;;;;;;;46.25;6.57;;;20.50;58.10;;;;;;5180097;28;20072;-78
2021/03/01 13:08:11;;;;;;;43.40;7.30;;;20.60;57.10;;;;;;5180718;28;20032;-79
2021/03/01 13:10:42;;;;;;;35.03;6.38;;;20.60;58.00;;;;;;5229951;28;20032;-77